Time;durP1;ratioP1;P1;durP2;ratioP2;P2;SDS_P1;SDS_P2;PMS_P1;PMS_P2;Temp;Humidity;BMP_temperature;BMP_pressure;BME280_temperature;BME280_humidity;BME280_pressure;Samples;Min_cycle;Max_cycle;Signal;HPM_P1;HPM_P2
2022/10/22 00:02:19;;;;;;;;;;;;;;;8.63;69.05;101930.13;5024593;28;19975;-80
2022/10/22 00:04:48;;;;;;;;;;;;;;;8.67;69.16;101925.41;5020711;28;19921;-80
2022/10/22 00:07:13;;;;;;;;;;;;;;;8.65;69.31;101922.81;5015499;28;19936;-81
2022/10/22 00:09:39;;;;;;;;;;;;;;;8.71;69.41;101924.19;5013555;28;19920;-80
2022/10/22 00:12:05;;;;;;;;;;;;;;;8.65;69.54;101916.63;5030094;28;19922;-80
2022/10/22 00:14:30;;;;;;;;;;;;;;;8.68;69.44;101918.22;5014106;28;19922;-80
2022/10/22 00:16:55;;;;;;;;;;;;;;;8.72;69.28;101917.00;5010562;28;20286;-79
2022/10/22 00:19:21;;;;;;;;;;;;;;;8.56;69.87;101906.59;5015422;28;20389;-80
2022/10/22 00:21:46;;;;;;;;;;;;;;;8.61;69.66;101915.97;5014073;28;19979;-79
2022/10/22 00:24:12;;;;;;;;;;;;;;;8.64;69.69;101913.09;5026090;28;20083;-80
2022/10/22 00:26:39;;;;;;;;;;;;;;;8.67;69.79;101909.31;4996806;28;19913;-80
2022/10/22 00:29:04;;;;;;;;;;;;;;;8.68;69.94;101902.97;5015394;28;19928;-79
2022/10/22 00:31:29;;;;;;;;;;;;;;;8.72;69.72;101895.56;5024724;28;20316;-79
2022/10/22 00:33:55;;;;;;;;;;;;;;;8.69;69.97;101893.13;5010278;28;20004;-79
2022/10/22 00:36:21;;;;;;;;;;;;;;;8.71;69.90;101888.47;5033132;28;19982;-79
2022/10/22 00:38:46;;;;;;;;;;;;;;;8.74;70.28;101877.53;5014079;28;19980;-80
2022/10/22 00:41:11;;;;;;;;;;;;;;;8.60;70.93;101887.47;5025858;28;20311;-80
2022/10/22 00:43:57;;;;;;;;;;;;;;;8.59;70.97;101882.22;5015513;28;20399;-80
2022/10/22 00:46:23;;;;;;;;;;;;;;;8.57;71.24;101877.00;5027249;28;20255;-78
2022/10/22 00:48:49;;;;;;;;;;;;;;;8.56;71.31;101869.06;5027192;28;19921;-80
2022/10/22 00:51:14;;;;;;;;;;;;;;;8.60;71.38;101865.19;5017194;28;19921;-80
2022/10/22 00:53:42;;;;;;;;;;;;;;;8.57;71.46;101862.72;5034430;28;20372;-81
2022/10/22 00:56:08;;;;;;;;;;;;;;;8.65;71.31;101863.00;5015358;28;20008;-80
2022/10/22 00:58:34;;;;;;;;;;;;;;;8.65;71.68;101861.16;5033072;28;20039;-78
2022/10/22 01:01:00;;;;;;;;;;;;;;;8.71;71.34;101861.66;5024916;28;19968;-80
2022/10/22 01:03:26;;;;;;;;;;;;;;;8.69;71.20;101863.63;5027273;28;19992;-79
2022/10/22 01:05:54;;;;;;;;;;;;;;;8.73;71.63;101859.72;5025349;28;19978;-79
2022/10/22 01:08:28;;;;;;;;;;;;;;;8.76;71.87;101859.50;5024203;28;19921;-80
2022/10/22 01:11:00;;;;;;;;;;;;;;;8.84;71.76;101857.91;5020403;28;20351;-81
2022/10/22 01:13:25;;;;;;;;;;;;;;;8.83;71.71;101858.03;5033664;28;19944;-80
2022/10/22 01:16:06;;;;;;;;;;;;;;;8.89;71.50;101846.81;5027831;28;20390;-79
2022/10/22 01:18:37;;;;;;;;;;;;;;;8.93;71.28;101847.44;4996865;28;19922;-78
2022/10/22 01:21:06;;;;;;;;;;;;;;;8.92;71.33;101841.22;5032996;28;19921;-79
2022/10/22 01:23:36;;;;;;;;;;;;;;;8.91;70.98;101844.03;5020332;28;20313;-79
2022/10/22 01:26:11;;;;;;;;;;;;;;;8.97;70.74;101840.88;5038795;28;19933;-79
2022/10/22 01:28:42;;;;;;;;;;;;;;;8.91;70.99;101839.50;5018141;28;19917;-80
2022/10/22 01:31:07;;;;;;;;;;;;;;;8.97;70.69;101839.03;5033755;28;19963;-79
2022/10/22 01:33:33;;;;;;;;;;;;;;;8.96;70.78;101839.13;5011724;28;19962;-78
2022/10/22 01:35:59;;;;;;;;;;;;;;;9.06;70.39;101837.41;5019904;28;19937;-78
2022/10/22 01:38:25;;;;;;;;;;;;;;;9.08;70.25;101833.66;5027853;28;19964;-78
2022/10/22 01:40:50;;;;;;;;;;;;;;;9.09;70.01;101840.72;5006809;28;20375;-78
2022/10/22 01:43:16;;;;;;;;;;;;;;;9.09;69.88;101827.31;5042272;28;19933;-80
2022/10/22 01:45:42;;;;;;;;;;;;;;;9.13;69.44;101829.75;5041079;28;19925;-78
2022/10/22 01:48:19;;;;;;;;;;;;;;;9.12;69.18;101830.72;5032767;28;20462;-78
2022/10/22 01:50:47;;;;;;;;;;;;;;;9.12;69.01;101825.38;5023505;28;19983;-81
2022/10/22 01:53:31;;;;;;;;;;;;;;;9.14;68.80;101829.63;5022134;28;19924;-79
2022/10/22 01:55:56;;;;;;;;;;;;;;;9.16;68.51;101818.78;5019186;28;19921;-79
2022/10/22 01:58:37;;;;;;;;;;;;;;;9.07;68.84;101817.69;5037238;28;19947;-79
2022/10/22 02:01:08;;;;;;;;;;;;;;;9.08;68.62;101822.94;5027185;28;19944;-79
2022/10/22 02:03:37;;;;;;;;;;;;;;;8.95;68.97;101832.94;5016399;28;19917;-81
2022/10/22 02:06:03;;;;;;;;;;;;;;;8.92;68.89;101833.19;5039570;28;19982;-81
2022/10/22 02:08:31;;;;;;;;;;;;;;;9.01;68.43;101831.56;5017582;28;19917;-80
2022/10/22 02:10:57;;;;;;;;;;;;;;;8.94;68.80;101836.56;5022999;28;19945;-79
2022/10/22 02:13:24;;;;;;;;;;;;;;;8.95;67.78;101832.94;5034649;28;19921;-81
2022/10/22 02:15:49;;;;;;;;;;;;;;;8.98;67.84;101842.56;5028906;28;20011;-79
2022/10/22 02:18:16;;;;;;;;;;;;;;;9.07;66.69;101837.31;5032060;28;20012;-79
2022/10/22 02:20:41;;;;;;;;;;;;;;;9.03;66.74;101841.19;5029111;28;19921;-79
2022/10/22 02:23:06;;;;;;;;;;;;;;;9.08;66.73;101833.66;5014326;28;20373;-78
2022/10/22 02:25:36;;;;;;;;;;;;;;;9.05;66.17;101827.69;5006271;28;20309;-79
2022/10/22 02:28:02;;;;;;;;;;;;;;;9.11;66.50;101837.06;5001240;28;19976;-80
2022/10/22 02:30:28;;;;;;;;;;;;;;;9.07;66.26;101836.47;5039382;28;19921;-80
2022/10/22 02:33:20;;;;;;;;;;;;;;;9.14;66.49;101842.19;5018481;28;20396;-80
2022/10/22 02:35:45;;;;;;;;;;;;;;;9.01;66.77;101836.94;5019621;28;19987;-78
2022/10/22 02:38:10;;;;;;;;;;;;;;;8.99;66.61;101834.41;5004823;28;20048;-79
2022/10/22 02:40:36;;;;;;;;;;;;;;;9.09;66.47;101837.19;5035054;28;20027;-79
2022/10/22 02:43:02;;;;;;;;;;;;;;;8.97;66.51;101824.78;5024440;28;20392;-78
2022/10/22 02:45:29;;;;;;;;;;;;;;;8.98;66.40;101821.09;5033121;28;19984;-79
2022/10/22 02:47:55;;;;;;;;;;;;;;;9.01;66.30;101832.44;5002813;28;19921;-81
2022/10/22 02:50:20;;;;;;;;;;;;;;;8.96;66.36;101834.63;5026006;28;19921;-78
2022/10/22 02:52:46;;;;;;;;;;;;;;;8.80;66.89;101837.69;5030563;28;20051;-79
2022/10/22 02:55:11;;;;;;;;;;;;;;;8.84;66.54;101819.50;5028713;28;19921;-79
2022/10/22 02:57:37;;;;;;;;;;;;;;;8.73;66.78;101822.19;5030709;28;19944;-79
2022/10/22 03:00:03;;;;;;;;;;;;;;;8.78;66.76;101822.66;5028912;28;19932;-79
2022/10/22 03:02:29;;;;;;;;;;;;;;;8.73;65.96;101822.19;5033204;28;19921;-79
2022/10/22 03:04:54;;;;;;;;;;;;;;;8.81;66.14;101819.75;5025814;28;19940;-79
2022/10/22 03:07:19;;;;;;;;;;;;;;;8.58;67.14;101825.09;5015198;28;19948;-82
2022/10/22 03:09:45;;;;;;;;;;;;;;;8.64;66.87;101824.63;5025779;28;20047;-81
2022/10/22 03:12:10;;;;;;;;;;;;;;;8.59;66.99;101826.81;5018684;28;19956;-82
2022/10/22 03:14:36;;;;;;;;;;;;;;;8.60;65.72;101816.94;5022631;28;19974;-79
2022/10/22 03:17:01;;;;;;;;;;;;;;;8.68;65.99;101821.69;5012504;28;19917;-81
2022/10/22 03:19:26;;;;;;;;;;;;;;;8.70;64.76;101817.91;5033793;28;19927;-79
2022/10/22 03:21:52;;;;;;;;;;;;;;;8.81;64.37;101817.06;5033360;28;19920;-79
2022/10/22 03:24:22;;;;;;;;;;;;;;;8.86;64.05;101820.25;5005296;28;19971;-79
2022/10/22 03:26:48;;;;;;;;;;;;;;;8.95;63.71;101811.47;5027120;28;19982;-79
2022/10/22 03:29:13;;;;;;;;;;;;;;;9.01;63.50;101808.31;5026025;28;19983;-81
2022/10/22 03:31:39;;;;;;;;;;;;;;;9.07;62.91;101810.47;5043685;28;19959;-79
2022/10/22 03:34:04;;;;;;;;;;;;;;;9.08;62.90;101796.09;5028441;28;19921;-80
2022/10/22 03:36:30;;;;;;;;;;;;;;;9.14;63.11;101799.28;5030020;28;20453;-80
2022/10/22 03:38:55;;;;;;;;;;;;;;;9.16;62.75;101802.69;5039894;28;19926;-80
2022/10/22 03:41:20;;;;;;;;;;;;;;;9.15;62.80;101801.81;5003262;28;19921;-79
2022/10/22 03:43:50;;;;;;;;;;;;;;;9.13;63.08;101797.53;5040405;28;19932;-80
2022/10/22 03:46:17;;;;;;;;;;;;;;;9.19;62.79;101799.75;5025223;28;19921;-78
2022/10/22 03:48:43;;;;;;;;;;;;;;;9.17;62.87;101794.50;5029253;28;20685;-82
2022/10/22 03:51:10;;;;;;;;;;;;;;;9.11;63.21;101803.06;5028630;28;19921;-81
2022/10/22 03:53:35;;;;;;;;;;;;;;;9.18;62.89;101801.59;5027411;28;20042;-80
2022/10/22 03:56:00;;;;;;;;;;;;;;;9.14;63.21;101804.63;5021572;28;20016;-80
2022/10/22 03:58:27;;;;;;;;;;;;;;;9.17;63.13;101805.22;5023631;28;20342;-80
2022/10/22 04:00:54;;;;;;;;;;;;;;;9.18;63.22;101798.06;5005381;28;19925;-80
2022/10/22 04:03:19;;;;;;;;;;;;;;;9.18;63.07;101795.38;5012295;28;19931;-80
2022/10/22 04:05:44;;;;;;;;;;;;;;;9.01;63.13;101797.56;5023558;28;20023;-81
2022/10/22 04:08:11;;;;;;;;;;;;;;;8.87;63.45;101803.16;5006465;28;20020;-78
2022/10/22 04:10:36;;;;;;;;;;;;;;;8.83;63.78;101801.72;5026154;28;19921;-80
2022/10/22 04:13:03;;;;;;;;;;;;;;;8.82;63.86;101797.31;5030246;28;19921;-80
2022/10/22 04:15:31;;;;;;;;;;;;;;;8.66;64.25;101806.59;5017459;28;20089;-79
2022/10/22 04:17:57;;;;;;;;;;;;;;;8.78;64.09;101798.53;5028429;28;19944;-79
2022/10/22 04:20:23;;;;;;;;;;;;;;;8.68;64.55;101808.28;5004506;28;19921;-80
2022/10/22 04:22:48;;;;;;;;;;;;;;;8.58;64.46;101803.66;5025440;28;19929;-80
2022/10/22 04:25:14;;;;;;;;;;;;;;;8.55;64.66;101798.53;5005353;28;19921;-80
2022/10/22 04:27:40;;;;;;;;;;;;;;;8.61;64.54;101803.41;5021158;28;19924;-81
2022/10/22 04:30:06;;;;;;;;;;;;;;;8.57;64.55;101798.38;5026059;28;19979;-80
2022/10/22 04:32:32;;;;;;;;;;;;;;;8.54;64.51;101787.91;5029644;28;19979;-81
2022/10/22 04:34:58;;;;;;;;;;;;;;;8.55;64.39;101798.53;5026648;28;19998;-83
2022/10/22 04:37:23;;;;;;;;;;;;;;;8.52;64.51;101796.09;5013234;28;20288;-84
2022/10/22 04:39:48;;;;;;;;;;;;;;;8.58;64.39;101798.28;5028056;28;20425;-83
2022/10/22 04:42:14;;;;;;;;;;;;;;;8.62;64.17;101802.44;5034097;28;19932;-84
2022/10/22 04:44:39;;;;;;;;;;;;;;;8.62;64.39;101796.22;5010012;28;19921;-81
2022/10/22 04:47:04;;;;;;;;;;;;;;;8.48;64.55;101791.94;5023958;28;19951;-82
2022/10/22 04:49:30;;;;;;;;;;;;;;;8.47;64.79;101795.56;5025053;28;20008;-82
2022/10/22 04:51:55;;;;;;;;;;;;;;;8.57;64.55;101796.59;5012160;28;20023;-80
2022/10/22 04:54:20;;;;;;;;;;;;;;;8.57;64.59;101793.03;5025597;28;20007;-80
2022/10/22 04:56:46;;;;;;;;;;;;;;;8.63;64.80;101790.72;5039075;28;19948;-82
2022/10/22 04:59:12;;;;;;;;;;;;;;;8.58;64.60;101792.06;5033512;28;20020;-81
2022/10/22 05:01:38;;;;;;;;;;;;;;;8.65;64.53;101788.78;5011510;28;20399;-82
2022/10/22 05:04:04;;;;;;;;;;;;;;;8.74;64.13;101786.38;5008383;28;19922;-82
2022/10/22 05:06:29;;;;;;;;;;;;;;;8.87;63.83;101792.44;5018927;28;19924;-81
2022/10/22 05:08:55;;;;;;;;;;;;;;;8.93;63.54;101791.97;5021873;28;19921;-83
2022/10/22 05:11:23;;;;;;;;;;;;;;;9.09;62.92;101791.59;5023522;28;19991;-80
2022/10/22 05:13:49;;;;;;;;;;;;;;;9.30;62.50;101797.03;5026908;28;19932;-81
2022/10/22 05:16:15;;;;;;;;;;;;;;;9.57;61.32;101790.38;5022585;28;20270;-82
2022/10/22 05:18:42;;;;;;;;;;;;;;;9.78;60.70;101783.22;5010280;28;19921;-81
2022/10/22 05:21:09;;;;;;;;;;;;;;;9.89;60.00;101788.56;5015180;28;19929;-81
2022/10/22 05:23:36;;;;;;;;;;;;;;;10.17;59.16;101791.59;5037928;28;19921;-81
2022/10/22 05:26:04;;;;;;;;;;;;;;;10.43;58.37;101783.16;5026393;28;19925;-80
2022/10/22 05:28:30;;;;;;;;;;;;;;;10.63;58.06;101778.72;5008919;28;20063;-81
2022/10/22 05:30:57;;;;;;;;;;;;;;;10.84;57.60;101782.25;5028807;28;20008;-81
2022/10/22 05:33:22;;;;;;;;;;;;;;;11.20;56.84;101798.78;5027733;28;20316;-80
2022/10/22 05:35:51;;;;;;;;;;;;;;;11.43;55.26;101796.72;5029753;28;19925;-81
2022/10/22 05:38:17;;;;;;;;;;;;;;;12.39;53.32;101803.13;5030564;28;19921;-80
2022/10/22 05:40:43;;;;;;;;;;;;;;;15.10;46.95;101790.47;5008330;28;19920;-83
2022/10/22 05:43:08;;;;;;;;;;;;;;;16.85;41.71;101787.50;5006375;28;19969;-80
2022/10/22 05:45:40;;;;;;;;;;;;;;;18.21;37.88;101782.63;5023971;28;20487;-80
2022/10/22 05:48:06;;;;;;;;;;;;;;;19.80;35.78;101789.41;5025091;28;19976;-84
2022/10/22 05:50:34;;;;;;;;;;;;;;;20.81;32.81;101784.59;5006482;28;19948;-83
2022/10/22 05:52:59;;;;;;;;;;;;;;;21.20;32.30;101787.69;5027313;28;19921;-87
2022/10/22 05:55:24;;;;;;;;;;;;;;;22.08;29.95;101783.09;5027764;28;20378;-83
2022/10/22 05:57:50;;;;;;;;;;;;;;;23.19;28.42;101781.44;5031654;28;19931;-85
2022/10/22 06:00:15;;;;;;;;;;;;;;;24.23;27.19;101782.94;5024072;28;19929;-83
2022/10/22 06:02:42;;;;;;;;;;;;;;;24.16;26.96;101768.41;5042403;28;19947;-84
2022/10/22 06:05:10;;;;;;;;;;;;;;;24.18;26.43;101763.50;5028206;28;19922;-86
2022/10/22 06:07:35;;;;;;;;;;;;;;;23.77;26.68;101767.63;5030340;28;19973;-85
2022/10/22 06:10:00;;;;;;;;;;;;;;;23.21;26.86;101768.38;5033866;28;19927;-85
2022/10/22 06:12:26;;;;;;;;;;;;;;;22.86;27.82;101765.94;5025190;28;19929;-83
2022/10/22 06:14:51;;;;;;;;;;;;;;;23.68;26.64;101755.22;5026770;28;19929;-84
2022/10/22 06:17:18;;;;;;;;;;;;;;;24.84;25.14;101761.16;5038992;28;19987;-84
2022/10/22 06:19:44;;;;;;;;;;;;;;;25.56;24.59;101752.22;5027976;28;20008;-83
2022/10/22 06:22:09;;;;;;;;;;;;;;;26.02;23.61;101756.19;5021373;28;19965;-83
2022/10/22 06:24:34;;;;;;;;;;;;;;;25.51;24.18;101754.84;5025452;28;19963;-82
2022/10/22 06:27:01;;;;;;;;;;;;;;;24.29;25.02;101763.84;5030011;28;19921;-83
2022/10/22 06:29:26;;;;;;;;;;;;;;;25.60;23.94;101759.78;5036008;28;19958;-83
2022/10/22 06:31:52;;;;;;;;;;;;;;;26.17;22.59;101767.59;5009829;28;19975;-83
2022/10/22 06:34:17;;;;;;;;;;;;;;;26.19;22.75;101773.69;5011409;28;19928;-84
2022/10/22 06:36:43;;;;;;;;;;;;;;;26.58;22.01;101765.81;5006424;28;20008;-85
2022/10/22 06:39:12;;;;;;;;;;;;;;;25.98;22.67;101766.84;5038702;28;19929;-85
2022/10/22 06:41:37;;;;;;;;;;;;;;;26.58;22.36;101770.50;5025878;28;20475;-85
2022/10/22 06:44:04;;;;;;;;;;;;;;;27.26;21.46;101768.94;5027658;28;20043;-85
2022/10/22 06:46:31;;;;;;;;;;;;;;;27.38;21.31;101758.69;5024109;28;19924;-86
2022/10/22 06:48:58;;;;;;;;;;;;;;;26.86;21.88;101764.22;5048856;28;19936;-86
2022/10/22 06:51:23;;;;;;;;;;;;;;;27.08;21.09;101768.00;5030127;28;19983;-88
2022/10/22 06:53:52;;;;;;;;;;;;;;;27.42;20.86;101759.88;5030839;28;19925;-85
2022/10/22 06:56:18;;;;;;;;;;;;;;;26.52;22.09;101761.22;5030241;28;19967;-85
2022/10/22 06:58:45;;;;;;;;;;;;;;;25.84;22.61;101765.34;5031104;28;19925;-86
2022/10/22 07:01:11;;;;;;;;;;;;;;;25.35;23.46;101756.34;5030442;28;19936;-86
2022/10/22 07:03:56;;;;;;;;;;;;;;;25.96;22.73;101757.97;5026633;28;19931;-87
2022/10/22 07:06:25;;;;;;;;;;;;;;;25.53;23.23;101755.44;5036562;28;19975;-85
2022/10/22 07:09:02;;;;;;;;;;;;;;;26.04;22.67;101745.78;5026723;28;19917;-85
2022/10/22 07:11:34;;;;;;;;;;;;;;;26.70;21.85;101746.50;5041897;28;19956;-87
2022/10/22 07:13:59;;;;;;;;;;;;;;;26.23;22.06;101741.00;5017636;28;19935;-86
2022/10/22 07:16:27;;;;;;;;;;;;;;;27.11;21.30;101742.69;5029804;28;20330;-86
2022/10/22 07:18:53;;;;;;;;;;;;;;;26.30;21.69;101741.72;5029275;28;19921;-86
2022/10/22 07:21:19;;;;;;;;;;;;;;;26.09;22.34;101740.41;5027739;28;20273;-86
2022/10/22 07:23:44;;;;;;;;;;;;;;;25.65;22.89;101742.56;5029173;28;19974;-87
2022/10/22 07:26:12;;;;;;;;;;;;;;;25.65;22.88;101737.03;5032940;28;19992;-86
2022/10/22 07:28:38;;;;;;;;;;;;;;;26.24;21.94;101740.75;5020430;28;19975;-86
2022/10/22 07:31:06;;;;;;;;;;;;;;;25.72;23.03;101729.53;5028493;28;19932;-85
2022/10/22 07:33:32;;;;;;;;;;;;;;;25.66;23.07;101731.31;5010177;28;19944;-84
2022/10/22 07:35:58;;;;;;;;;;;;;;;25.60;23.16;101731.41;5025681;28;20353;-85
2022/10/22 07:38:25;;;;;;;;;;;;;;;26.01;22.61;101726.94;5045559;28;19931;-89
2022/10/22 07:40:50;;;;;;;;;;;;;;;25.74;22.56;101732.03;5029049;28;19933;-83
2022/10/22 07:43:15;;;;;;;;;;;;;;;26.07;22.33;101732.34;5037089;28;19917;-84
2022/10/22 07:45:41;;;;;;;;;;;;;;;25.99;22.56;101734.63;5026204;28;20313;-86
2022/10/22 07:48:06;;;;;;;;;;;;;;;25.56;22.71;101727.44;5016573;28;20358;-84
2022/10/22 07:50:31;;;;;;;;;;;;;;;24.80;23.80;101724.22;5013420;28;19929;-83
2022/10/22 07:52:57;;;;;;;;;;;;;;;25.62;22.77;101718.25;4993071;28;19937;-85
2022/10/22 07:55:23;;;;;;;;;;;;;;;26.10;22.34;101717.25;5035207;28;19925;-83
2022/10/22 07:57:48;;;;;;;;;;;;;;;24.81;23.84;101717.63;5016336;28;19948;-86
2022/10/22 08:00:14;;;;;;;;;;;;;;;24.31;24.38;101724.09;5015560;28;20374;-88
2022/10/22 08:02:42;;;;;;;;;;;;;;;24.83;23.43;101726.50;5028410;28;20055;-87
2022/10/22 08:05:08;;;;;;;;;;;;;;;25.58;23.12;101714.28;5021500;28;19956;-86
2022/10/22 08:07:33;;;;;;;;;;;;;;;26.22;22.55;101709.84;5032461;28;19933;-88
2022/10/22 08:09:59;;;;;;;;;;;;;;;27.37;21.43;101715.59;5017580;28;20277;-87
2022/10/22 08:12:24;;;;;;;;;;;;;;;27.73;20.74;101714.28;5024755;28;19994;-86
2022/10/22 08:14:49;;;;;;;;;;;;;;;26.91;21.41;101707.22;5030599;28;19921;-86
2022/10/22 08:17:15;;;;;;;;;;;;;;;28.05;20.40;101704.59;5028984;28;19929;-89
2022/10/22 08:19:41;;;;;;;;;;;;;;;28.83;19.68;101708.22;5001459;28;20384;-87
2022/10/22 08:22:13;;;;;;;;;;;;;;;28.23;19.72;101709.03;5035163;28;20373;-88
2022/10/22 08:24:38;;;;;;;;;;;;;;;28.54;19.36;101713.06;5023246;28;19960;-85
2022/10/22 08:27:03;;;;;;;;;;;;;;;28.92;19.37;101701.13;5025757;28;19971;-86
2022/10/22 08:29:29;;;;;;;;;;;;;;;29.81;18.73;101691.53;5007692;28;19921;-87
2022/10/22 08:31:55;;;;;;;;;;;;;;;31.29;17.98;101694.22;5023677;28;20416;-90
2022/10/22 08:34:21;;;;;;;;;;;;;;;31.51;16.94;101684.81;5000431;28;19925;-91
2022/10/22 08:36:46;;;;;;;;;;;;;;;31.18;17.17;101681.41;5019221;28;20388;-88
2022/10/22 08:39:12;;;;;;;;;;;;;;;32.08;16.56;101683.69;5021618;28;19965;-86
2022/10/22 08:41:44;;;;;;;;;;;;;;;32.05;16.41;101678.69;5042222;28;19975;-89
2022/10/22 08:44:28;;;;;;;;;;;;;;;31.58;16.43;101667.88;5009136;28;20612;-84
2022/10/22 08:47:02;;;;;;;;;;;;;;;32.38;15.73;101668.88;5027384;28;19929;-88
2022/10/22 08:49:35;;;;;;;;;;;;;;;31.58;16.43;101660.34;5022538;28;19921;-89
2022/10/22 08:52:09;;;;;;;;;;;;;;;29.85;17.40;101664.97;5042792;28;19921;-90
2022/10/22 08:54:55;;;;;;;;;;;;;;;29.50;18.22;101662.72;5041626;28;19924;-87
2022/10/22 08:57:54;;;;;;;;;;;;;;;30.45;17.33;101659.22;5017812;28;20670;-88
2022/10/22 09:00:24;;;;;;;;;;;;;;;29.32;18.02;101663.09;5019644;28;19917;-87
2022/10/22 09:03:09;;;;;;;;;;;;;;;29.02;18.49;101673.56;5062744;28;19913;-90
2022/10/22 09:05:53;;;;;;;;;;;;;;;28.91;18.43;101659.84;5039684;28;19932;-87
2022/10/22 09:08:19;;;;;;;;;;;;;;;30.66;17.21;101651.81;5030273;28;19944;-88
2022/10/22 09:10:45;;;;;;;;;;;;;;;31.30;16.76;101647.81;5039172;28;20408;-86
2022/10/22 09:13:11;;;;;;;;;;;;;;;28.81;18.47;101647.56;5001215;28;19985;-84
2022/10/22 09:15:37;;;;;;;;;;;;;;;29.22;18.25;101649.97;5032540;28;20022;-87
2022/10/22 09:18:05;;;;;;;;;;;;;;;29.84;17.82;101640.28;5028768;28;20128;-85
2022/10/22 09:20:51;;;;;;;;;;;;;;;28.27;19.66;101643.84;5005372;28;19921;-87
2022/10/22 09:23:16;;;;;;;;;;;;;;;26.88;21.37;101643.44;5028589;28;19966;-84
2022/10/22 09:25:42;;;;;;;;;;;;;;;24.94;23.21;101634.97;5002405;28;19921;-86
2022/10/22 09:28:08;;;;;;;;;;;;;;;24.45;24.08;101634.09;5012158;28;19985;-84
2022/10/22 09:30:34;;;;;;;;;;;;;;;25.66;22.98;101626.69;5021368;28;19917;-84
2022/10/22 09:33:01;;;;;;;;;;;;;;;26.15;21.94;101631.09;5021122;28;20286;-84
2022/10/22 09:35:26;;;;;;;;;;;;;;;27.43;20.94;101617.94;5008697;28;19929;-83
2022/10/22 09:37:55;;;;;;;;;;;;;;;27.28;20.83;101612.19;5029664;28;19967;-83
2022/10/22 09:40:21;;;;;;;;;;;;;;;26.50;21.85;101614.50;5011153;28;19921;-84
2022/10/22 09:42:46;;;;;;;;;;;;;;;24.34;24.04;101612.88;5029018;28;19924;-83
2022/10/22 09:45:22;;;;;;;;;;;;;;;23.92;24.58;101607.19;5014238;28;19917;-83
2022/10/22 09:47:47;;;;;;;;;;;;;;;23.69;25.01;101614.13;5059894;28;19964;-84
2022/10/22 09:50:20;;;;;;;;;;;;;;;22.16;26.90;101616.88;5010282;28;19925;-81
2022/10/22 09:53:06;;;;;;;;;;;;;;;21.58;28.26;101626.63;5044714;28;19918;-82
2022/10/22 09:55:32;;;;;;;;;;;;;;;21.37;28.63;101619.44;4973796;28;20313;-84
2022/10/22 09:58:00;;;;;;;;;;;;;;;21.39;28.55;101611.03;5017688;28;20472;-83
2022/10/22 10:00:26;;;;;;;;;;;;;;;21.39;28.72;101606.38;5008431;28;19928;-84
2022/10/22 10:02:56;;;;;;;;;;;;;;;22.31;27.53;101587.34;5029892;28;19917;-82
2022/10/22 10:05:34;;;;;;;;;;;;;;;23.01;26.28;101592.09;5029215;28;19922;-84
2022/10/22 10:08:10;;;;;;;;;;;;;;;22.71;26.45;101582.56;5029456;28;20385;-84
2022/10/22 10:10:48;;;;;;;;;;;;;;;22.13;27.77;101580.66;5012789;28;20011;-82
2022/10/22 10:13:22;;;;;;;;;;;;;;;21.38;29.12;101592.94;5032396;28;19925;-86
2022/10/22 10:15:54;;;;;;;;;;;;;;;21.39;29.22;101579.03;5030381;28;20048;-84
2022/10/22 10:18:49;;;;;;;;;;;;;;;21.54;31.27;101587.09;5013473;28;19921;-85
2022/10/22 10:21:14;;;;;;;;;;;;;;;21.60;29.56;101582.66;4978338;28;20375;-87
2022/10/22 10:23:46;;;;;;;;;;;;;;;21.69;29.98;101589.59;5033779;28;20000;-85
2022/10/22 10:26:14;;;;;;;;;;;;;;;21.73;32.80;101598.19;4989366;28;20360;-84
2022/10/22 10:28:39;;;;;;;;;;;;;;;20.99;37.95;101594.56;5033068;28;19921;-84
2022/10/22 10:31:23;;;;;;;;;;;;;;;20.48;40.01;101589.53;5008570;28;20412;-85
2022/10/22 10:33:51;;;;;;;;;;;;;;;20.04;41.27;101575.25;5032721;28;19929;-85
2022/10/22 10:36:35;;;;;;;;;;;;;;;20.17;41.82;101580.78;5033067;28;20028;-84
2022/10/22 10:39:06;;;;;;;;;;;;;;;20.23;41.87;101569.06;5031672;28;20012;-85
2022/10/22 10:41:41;;;;;;;;;;;;;;;20.08;42.38;101559.31;5038069;28;19917;-85
2022/10/22 10:44:25;;;;;;;;;;;;;;;19.66;43.90;101561.13;5031320;28;20333;-83
2022/10/22 10:46:59;;;;;;;;;;;;;;;19.55;44.14;101552.47;5022585;28;20400;-84
2022/10/22 10:49:24;;;;;;;;;;;;;;;19.42;44.72;101541.47;5031073;28;19921;-86
2022/10/22 10:51:53;;;;;;;;;;;;;;;19.14;45.59;101520.47;5029573;28;20362;-84
2022/10/22 10:54:27;;;;;;;;;;;;;;;19.16;46.10;101523.84;5023241;28;19929;-85
2022/10/22 10:56:55;;;;;;;;;;;;;;;18.96;46.74;101525.53;5021028;28;19948;-83
2022/10/22 10:59:27;;;;;;;;;;;;;;;19.51;46.12;101514.88;5040106;28;20028;-85
2022/10/22 11:01:52;;;;;;;;;;;;;;;19.79;44.28;101512.16;5028221;28;20004;-82
2022/10/22 11:04:17;;;;;;;;;;;;;;;19.70;44.15;101505.19;5031795;28;19953;-86
2022/10/22 11:06:42;;;;;;;;;;;;;;;19.55;44.65;101499.78;5032275;28;19921;-83
2022/10/22 11:09:14;;;;;;;;;;;;;;;19.60;44.62;101497.31;5019368;28;19929;-85
2022/10/22 11:11:46;;;;;;;;;;;;;;;20.14;43.76;101493.00;5044642;28;19921;-84
2022/10/22 11:14:14;;;;;;;;;;;;;;;19.89;44.44;101498.16;5018158;28;19931;-83
2022/10/22 11:16:49;;;;;;;;;;;;;;;19.65;45.23;101491.28;5045032;28;19918;-84
2022/10/22 11:19:20;;;;;;;;;;;;;;;19.37;45.42;101492.13;5014389;28;19922;-85
2022/10/22 11:21:51;;;;;;;;;;;;;;;19.26;46.05;101485.34;5030160;28;19917;-84
2022/10/22 11:24:29;;;;;;;;;;;;;;;18.99;46.79;101484.28;5031829;28;19921;-82
2022/10/22 11:27:00;;;;;;;;;;;;;;;18.89;47.44;101481.03;5013882;28;20016;-85
2022/10/22 11:29:38;;;;;;;;;;;;;;;19.00;46.69;101483.25;4998815;28;19918;-83
2022/10/22 11:32:03;;;;;;;;;;;;;;;19.12;46.78;101478.09;5007717;28;19924;-84
2022/10/22 11:34:38;;;;;;;;;;;;;;;19.27;46.49;101469.81;5021327;28;19932;-83
2022/10/22 11:37:05;;;;;;;;;;;;;;;18.94;47.22;101468.53;5008722;28;19975;-83
2022/10/22 11:39:33;;;;;;;;;;;;;;;19.06;46.82;101462.53;5045020;28;19945;-83
2022/10/22 11:42:02;;;;;;;;;;;;;;;18.63;48.37;101462.53;5031677;28;20336;-83
2022/10/22 11:44:29;;;;;;;;;;;;;;;18.86;47.40;101451.47;5027237;28;19922;-83
2022/10/22 11:47:13;;;;;;;;;;;;;;;18.65;48.04;101442.25;5014458;28;20008;-85
2022/10/22 11:49:42;;;;;;;;;;;;;;;18.58;48.93;101454.97;5030113;28;20011;-83
2022/10/22 11:52:26;;;;;;;;;;;;;;;18.69;48.91;101440.81;5037526;28;19925;-83
2022/10/22 11:54:52;;;;;;;;;;;;;;;18.71;48.33;101437.91;5039283;28;19940;-83
2022/10/22 11:57:19;;;;;;;;;;;;;;;18.42;48.81;101434.25;5023719;28;20393;-82
2022/10/22 11:59:48;;;;;;;;;;;;;;;18.66;48.40;101426.75;5038957;28;19925;-82
2022/10/22 12:02:40;;;;;;;;;;;;;;;18.59;48.29;101417.66;5031906;28;19929;-82
2022/10/22 12:05:18;;;;;;;;;;;;;;;18.47;48.10;101426.38;5014088;28;20408;-85
2022/10/22 12:07:57;;;;;;;;;;;;;;;18.46;48.62;101421.97;5030440;28;19921;-84
2022/10/22 12:10:26;;;;;;;;;;;;;;;18.16;49.63;101429.38;5041547;28;19925;-82
2022/10/22 12:13:12;;;;;;;;;;;;;;;18.14;50.78;101431.44;5029836;28;20305;-84
2022/10/22 12:15:47;;;;;;;;;;;;;;;18.26;50.58;101431.78;5005833;28;19921;-87
2022/10/22 12:18:15;;;;;;;;;;;;;;;18.28;49.84;101432.44;5003198;28;19979;-85
2022/10/22 12:20:40;;;;;;;;;;;;;;;18.24;49.30;101422.97;5036439;28;20000;-84
2022/10/22 12:23:07;;;;;;;;;;;;;;;18.18;50.07;101415.59;5029289;28;20174;-85
2022/10/22 12:25:35;;;;;;;;;;;;;;;18.28;50.69;101421.56;5024739;28;19969;-84
2022/10/22 12:28:02;;;;;;;;;;;;;;;18.32;50.07;101415.53;5029516;28;19940;-85
2022/10/22 12:30:28;;;;;;;;;;;;;;;18.06;50.10;101417.97;5023588;28;19925;-83
2022/10/22 12:32:56;;;;;;;;;;;;;;;17.99;50.83;101417.06;5014317;28;19918;-85
2022/10/22 12:35:23;;;;;;;;;;;;;;;18.04;50.83;101412.72;5029750;28;19936;-83
2022/10/22 12:37:54;;;;;;;;;;;;;;;17.95;51.51;101404.88;5025041;28;20008;-84
2022/10/22 12:40:23;;;;;;;;;;;;;;;17.90;51.72;101398.13;4992682;28;20002;-84
2022/10/22 12:42:48;;;;;;;;;;;;;;;18.07;51.63;101397.88;5030819;28;19960;-84
2022/10/22 12:45:13;;;;;;;;;;;;;;;18.02;51.67;101405.78;5026881;28;20025;-82
2022/10/22 12:47:40;;;;;;;;;;;;;;;17.93;51.74;101397.75;5035597;28;19917;-83